Time;durP1;ratioP1;P1;durP2;ratioP2;P2;SDS_P1;SDS_P2;PMS_P1;PMS_P2;Temp;Humidity;BMP_temperature;BMP_pressure;BME280_temperature;BME280_humidity;BME280_pressure;Samples;Min_cycle;Max_cycle;Signal;HPM_P1;HPM_P2
2021/09/17 00:01:26;;;;;;;5.60;4.30;;;12.70;99.90;;;;;;4955079;28;20030;-74
2021/09/17 00:03:53;;;;;;;6.75;4.78;;;12.70;99.90;;;;;;4955189;28;20048;-74
2021/09/17 00:06:19;;;;;;;7.07;4.40;;;12.70;99.90;;;;;;4956098;28;20066;-74
2021/09/17 00:08:45;;;;;;;5.55;4.88;;;12.60;99.90;;;;;;4956579;28;20034;-74
2021/09/17 00:11:12;;;;;;;7.57;4.88;;;12.60;99.90;;;;;;4956223;28;20050;-75
2021/09/17 00:13:38;;;;;;;8.63;5.13;;;12.50;99.90;;;;;;4969745;28;20051;-74
2021/09/17 00:16:04;;;;;;;7.35;4.57;;;12.50;99.90;;;;;;4957926;28;20076;-74
2021/09/17 00:18:31;;;;;;;7.15;5.55;;;12.40;99.90;;;;;;4957314;28;20062;-74
2021/09/17 00:20:57;;;;;;;7.85;5.05;;;12.40;99.90;;;;;;4965158;28;20050;-74
2021/09/17 00:23:23;;;;;;;6.30;4.68;;;12.30;99.90;;;;;;4984414;28;20031;-73
2021/09/17 00:25:50;;;;;;;6.78;4.72;;;12.20;99.90;;;;;;4978598;28;20047;-73
2021/09/17 00:28:16;;;;;;;7.05;5.40;;;12.20;99.90;;;;;;4962609;28;20096;-74
2021/09/17 00:30:42;;;;;;;6.60;4.75;;;12.10;99.90;;;;;;4955276;28;20043;-73
2021/09/17 00:33:08;;;;;;;6.50;4.57;;;12.00;99.90;;;;;;4955078;28;20036;-73
2021/09/17 00:35:35;;;;;;;7.93;5.50;;;12.00;99.90;;;;;;4955625;28;20043;-73
2021/09/17 00:38:03;;;;;;;7.43;5.15;;;11.90;99.90;;;;;;4954628;28;20038;-74
2021/09/17 00:40:31;;;;;;;8.02;4.82;;;11.90;99.90;;;;;;4955457;28;20035;-73
2021/09/17 00:42:57;;;;;;;10.57;5.68;;;11.80;99.90;;;;;;4954725;28;20035;-73
2021/09/17 00:45:23;;;;;;;8.55;5.47;;;11.80;99.90;;;;;;4968157;28;20035;-73
2021/09/17 00:47:49;;;;;;;7.38;5.43;;;11.80;99.90;;;;;;4963666;28;20038;-73
2021/09/17 00:50:18;;;;;;;8.30;5.97;;;11.80;99.90;;;;;;4955118;28;20035;-74
2021/09/17 00:52:46;;;;;;;8.60;5.38;;;11.90;99.90;;;;;;4955071;28;20043;-74
2021/09/17 00:55:13;;;;;;;8.43;5.38;;;11.90;99.90;;;;;;4954704;28;20054;-74
2021/09/17 00:57:39;;;;;;;7.85;5.72;;;12.00;99.90;;;;;;4955208;29;20424;-74
2021/09/17 01:00:09;;;;;;;8.18;6.03;;;12.00;99.90;;;;;;4956944;28;20058;-74
2021/09/17 01:02:36;;;;;;;10.23;6.27;;;12.10;99.90;;;;;;4955907;28;20382;-75
2021/09/17 01:05:04;;;;;;;7.47;5.30;;;12.10;99.90;;;;;;4954791;28;20042;-74
2021/09/17 01:07:31;;;;;;;9.07;5.13;;;12.00;99.90;;;;;;4954551;28;20039;-74
2021/09/17 01:09:59;;;;;;;7.97;5.10;;;11.80;99.90;;;;;;4953786;28;20044;-74
2021/09/17 01:12:26;;;;;;;6.18;5.07;;;11.80;99.90;;;;;;4954476;28;20408;-74
2021/09/17 01:14:52;;;;;;;9.02;6.32;;;11.60;99.90;;;;;;4955239;28;20122;-74
2021/09/17 01:17:19;;;;;;;6.38;4.88;;;11.50;99.90;;;;;;4954577;28;20035;-74
2021/09/17 01:19:48;;;;;;;14.95;5.38;;;11.40;99.90;;;;;;4955874;28;20039;-73
2021/09/17 01:22:14;;;;;;;11.35;5.30;;;11.40;99.90;;;;;;4958593;28;20050;-73
2021/09/17 01:24:41;;;;;;;7.93;5.20;;;11.30;99.90;;;;;;4958057;28;20042;-74
2021/09/17 01:27:08;;;;;;;8.23;5.57;;;11.30;99.90;;;;;;4974074;28;20221;-73
2021/09/17 01:29:34;;;;;;;8.90;6.22;;;11.20;99.90;;;;;;4963394;28;20031;-73
2021/09/17 01:32:00;;;;;;;7.00;4.85;;;11.30;99.90;;;;;;4957678;28;20047;-74
2021/09/17 01:34:26;;;;;;;8.15;5.60;;;11.20;99.90;;;;;;4958386;28;20050;-73
2021/09/17 01:36:53;;;;;;;8.15;6.10;;;11.20;99.90;;;;;;4957785;28;20034;-73
2021/09/17 01:39:20;;;;;;;9.80;6.68;;;11.10;99.90;;;;;;4958587;28;20417;-74
2021/09/17 01:41:48;;;;;;;8.68;5.65;;;11.10;99.90;;;;;;4958591;28;20035;-73
2021/09/17 01:44:14;;;;;;;8.13;5.35;;;11.10;99.90;;;;;;4957513;28;20047;-72
2021/09/17 01:46:40;;;;;;;7.93;5.47;;;11.00;99.90;;;;;;4957464;28;20051;-72
2021/09/17 01:49:08;;;;;;;9.95;6.07;;;11.00;99.90;;;;;;4957728;28;20030;-72
2021/09/17 01:51:35;;;;;;;9.40;5.05;;;11.00;99.90;;;;;;4957802;28;20393;-73
2021/09/17 01:54:05;;;;;;;12.15;6.78;;;11.10;99.90;;;;;;4957310;28;20070;-72
2021/09/17 01:56:33;;;;;;;10.65;6.13;;;11.20;99.90;;;;;;4957364;28;20031;-73
2021/09/17 01:58:59;;;;;;;12.10;7.88;;;11.40;99.90;;;;;;4956919;28;20624;-74
2021/09/17 02:01:26;;;;;;;8.52;5.70;;;11.50;99.90;;;;;;4957443;28;20473;-73
2021/09/17 02:03:52;;;;;;;11.05;6.70;;;11.40;99.90;;;;;;4957479;28;20462;-72
2021/09/17 02:06:24;;;;;;;10.07;5.45;;;11.50;99.90;;;;;;4939973;28;20035;-73
2021/09/17 02:08:51;;;;;;;8.75;4.68;;;11.40;99.90;;;;;;4939965;29;20054;-73
2021/09/17 02:11:18;;;;;;;5.80;5.18;;;11.30;99.90;;;;;;4959225;28;20047;-73
2021/09/17 02:13:44;;;;;;;11.02;5.50;;;11.30;99.90;;;;;;4969942;28;20042;-73
2021/09/17 02:16:11;;;;;;;8.25;5.93;;;11.30;99.90;;;;;;4956619;28;20035;-74
2021/09/17 02:18:37;;;;;;;6.07;4.65;;;11.40;99.90;;;;;;4956326;28;20052;-74
2021/09/17 02:21:04;;;;;;;7.55;5.55;;;11.40;99.90;;;;;;4940265;29;20031;-74
2021/09/17 02:23:30;;;;;;;5.97;4.60;;;11.40;99.90;;;;;;4941191;29;20058;-75
2021/09/17 02:25:56;;;;;;;9.20;5.43;;;11.50;99.90;;;;;;4957089;28;20042;-74
2021/09/17 02:28:23;;;;;;;7.65;5.57;;;11.60;99.90;;;;;;4957427;28;20038;-75
2021/09/17 02:30:50;;;;;;;6.18;4.45;;;11.70;99.90;;;;;;4957244;28;20032;-73
2021/09/17 02:33:16;;;;;;;7.45;5.25;;;11.70;99.90;;;;;;4956750;28;20058;-74
2021/09/17 02:35:42;;;;;;;9.98;4.95;;;11.70;99.90;;;;;;4957378;28;20027;-74
2021/09/17 02:38:09;;;;;;;6.07;4.45;;;11.70;99.90;;;;;;4956918;28;20366;-74
2021/09/17 02:40:35;;;;;;;10.77;4.50;;;11.70;99.90;;;;;;4956702;28;20039;-74
2021/09/17 02:43:02;;;;;;;7.53;4.93;;;11.70;99.90;;;;;;4956690;28;20485;-74
2021/09/17 02:45:28;;;;;;;7.95;4.55;;;11.70;99.90;;;;;;4956866;28;20039;-73
2021/09/17 02:47:55;;;;;;;7.43;5.55;;;11.70;99.90;;;;;;4957102;28;20039;-74
2021/09/17 02:50:21;;;;;;;5.68;4.32;;;11.80;99.90;;;;;;4956444;28;20055;-74
2021/09/17 02:52:47;;;;;;;8.82;5.22;;;11.90;99.90;;;;;;4957269;28;20042;-74
2021/09/17 02:55:14;;;;;;;7.55;5.15;;;12.00;99.90;;;;;;4955536;28;20062;-74
2021/09/17 02:57:41;;;;;;;8.15;5.63;;;12.00;99.90;;;;;;4956256;28;20050;-74
2021/09/17 03:00:10;;;;;;;8.60;5.43;;;12.10;99.90;;;;;;4939339;29;20397;-74
2021/09/17 03:02:36;;;;;;;8.07;5.05;;;12.10;99.90;;;;;;4956238;28;20061;-74
2021/09/17 03:05:03;;;;;;;6.22;5.00;;;12.10;99.90;;;;;;4956810;28;20173;-74
2021/09/17 03:07:29;;;;;;;8.57;5.22;;;12.10;99.90;;;;;;4956653;28;20054;-74
2021/09/17 03:09:55;;;;;;;9.50;5.75;;;12.20;99.90;;;;;;4955960;28;20035;-72
2021/09/17 03:12:22;;;;;;;8.35;5.80;;;12.30;99.90;;;;;;4956568;28;20039;-73
2021/09/17 03:14:48;;;;;;;7.97;6.22;;;12.30;99.90;;;;;;4955571;28;20043;-73
2021/09/17 03:17:14;;;;;;;8.88;5.85;;;12.30;99.90;;;;;;4956387;28;20035;-73
2021/09/17 03:19:40;;;;;;;10.07;6.75;;;12.30;99.90;;;;;;4957281;28;20042;-74
2021/09/17 03:22:07;;;;;;;9.10;6.50;;;12.30;99.90;;;;;;4961233;28;20042;-74
2021/09/17 03:24:33;;;;;;;9.45;6.03;;;12.40;99.90;;;;;;4961135;28;20045;-74
2021/09/17 03:26:59;;;;;;;9.52;6.25;;;12.40;99.90;;;;;;4956473;28;20389;-74
2021/09/17 03:29:25;;;;;;;8.18;5.70;;;12.40;99.90;;;;;;4963155;28;20046;-74
2021/09/17 03:31:51;;;;;;;8.02;5.88;;;12.40;99.90;;;;;;4955668;28;20031;-73
2021/09/17 03:34:18;;;;;;;10.13;6.55;;;12.40;99.90;;;;;;4956059;28;20051;-74
2021/09/17 03:36:44;;;;;;;10.25;6.85;;;12.40;99.90;;;;;;4962937;28;20030;-74
2021/09/17 03:39:15;;;;;;;10.02;6.35;;;12.40;99.90;;;;;;4955112;28;20046;-74
2021/09/17 03:41:45;;;;;;;10.88;6.55;;;12.40;99.90;;;;;;4956309;28;20027;-74
2021/09/17 03:44:15;;;;;;;10.57;6.70;;;12.40;99.90;;;;;;4955322;28;20062;-74
2021/09/17 03:46:42;;;;;;;13.07;6.72;;;12.40;99.90;;;;;;4956303;28;20473;-74
2021/09/17 03:49:10;;;;;;;11.00;6.15;;;12.50;99.90;;;;;;4954620;28;20031;-74
2021/09/17 03:51:36;;;;;;;12.85;7.68;;;12.60;99.90;;;;;;4956385;28;20051;-75
2021/09/17 03:54:02;;;;;;;11.07;6.18;;;12.60;99.90;;;;;;4955271;28;20051;-73
2021/09/17 03:56:28;;;;;;;8.45;6.10;;;12.60;99.90;;;;;;4956130;28;20035;-73
2021/09/17 03:58:54;;;;;;;9.18;6.07;;;12.70;99.90;;;;;;4955780;28;20039;-72
2021/09/17 04:01:21;;;;;;;9.15;6.60;;;12.70;99.90;;;;;;4956475;28;20042;-73
2021/09/17 04:03:47;;;;;;;11.82;6.07;;;12.80;99.90;;;;;;4955586;28;20396;-75
2021/09/17 04:06:13;;;;;;;7.35;5.70;;;12.80;99.90;;;;;;4954738;28;20051;-74
2021/09/17 04:08:39;;;;;;;7.63;4.90;;;12.70;99.90;;;;;;4955642;28;20387;-75
2021/09/17 04:11:06;;;;;;;6.95;5.25;;;12.80;99.90;;;;;;4954083;28;20042;-75
2021/09/17 04:13:32;;;;;;;6.80;5.18;;;12.80;99.90;;;;;;4955346;28;20038;-75
2021/09/17 04:15:58;;;;;;;8.48;5.53;;;12.70;99.90;;;;;;4954987;28;20039;-75
2021/09/17 04:18:24;;;;;;;7.30;5.35;;;12.80;99.90;;;;;;4955464;28;20393;-75
2021/09/17 04:20:50;;;;;;;9.25;5.50;;;12.80;99.90;;;;;;4955673;28;20043;-75
2021/09/17 04:23:16;;;;;;;6.88;5.38;;;12.80;99.90;;;;;;4955783;28;20034;-74
2021/09/17 04:25:43;;;;;;;8.10;5.40;;;12.80;99.90;;;;;;4959882;28;20095;-74
2021/09/17 04:28:09;;;;;;;7.60;5.25;;;12.80;99.90;;;;;;4970502;28;20697;-74
2021/09/17 04:30:35;;;;;;;6.95;5.45;;;12.90;99.90;;;;;;4968569;28;20050;-74
2021/09/17 04:33:01;;;;;;;10.95;5.85;;;12.90;99.90;;;;;;4967052;28;20046;-75
2021/09/17 04:35:28;;;;;;;9.88;6.28;;;12.90;99.90;;;;;;4955526;28;20039;-75
2021/09/17 04:37:58;;;;;;;8.93;6.40;;;12.90;99.90;;;;;;4954440;28;20031;-74
2021/09/17 04:40:24;;;;;;;9.38;5.50;;;12.90;99.90;;;;;;4955067;28;20023;-74
2021/09/17 04:42:52;;;;;;;11.27;6.43;;;12.90;99.90;;;;;;4953650;28;20047;-74
2021/09/17 04:45:18;;;;;;;8.65;6.28;;;12.90;99.90;;;;;;4955381;29;20465;-74
2021/09/17 04:47:44;;;;;;;9.75;6.07;;;12.90;99.90;;;;;;4959912;28;20039;-74
2021/09/17 04:50:11;;;;;;;9.25;6.38;;;12.90;99.90;;;;;;4963604;28;20038;-74
2021/09/17 04:52:38;;;;;;;12.30;6.70;;;12.90;99.90;;;;;;4970675;28;20040;-74
2021/09/17 04:55:04;;;;;;;10.65;6.57;;;13.00;99.90;;;;;;4969275;28;20489;-73
2021/09/17 04:57:31;;;;;;;10.07;6.40;;;12.90;99.90;;;;;;4961271;28;20039;-73
2021/09/17 04:59:57;;;;;;;9.10;6.28;;;12.90;99.90;;;;;;4955095;28;20031;-72
2021/09/17 05:02:23;;;;;;;8.38;5.63;;;12.90;99.90;;;;;;4955151;28;20104;-72
2021/09/17 05:04:49;;;;;;;9.40;6.70;;;12.90;99.90;;;;;;4955161;28;20039;-73
2021/09/17 05:07:16;;;;;;;8.40;6.68;;;12.90;99.90;;;;;;4954565;28;20043;-73
2021/09/17 05:09:42;;;;;;;9.65;6.38;;;13.00;99.90;;;;;;4954628;28;20034;-72
2021/09/17 05:12:08;;;;;;;8.45;6.43;;;13.00;99.90;;;;;;4954306;28;20137;-72
2021/09/17 05:14:34;;;;;;;11.48;6.63;;;13.00;99.90;;;;;;4954271;28;20039;-73
2021/09/17 05:17:01;;;;;;;11.07;6.70;;;13.00;99.90;;;;;;4952881;28;20043;-73
2021/09/17 05:19:27;;;;;;;9.20;6.15;;;12.90;99.90;;;;;;4953458;28;20054;-72
2021/09/17 05:21:54;;;;;;;9.40;6.38;;;13.00;99.90;;;;;;4953688;28;20046;-73
2021/09/17 05:24:22;;;;;;;11.82;6.43;;;13.10;99.90;;;;;;4954688;28;20389;-73
2021/09/17 05:26:49;;;;;;;11.18;7.05;;;13.20;99.90;;;;;;4954255;28;20031;-73
2021/09/17 05:29:15;;;;;;;10.65;7.28;;;13.30;99.90;;;;;;4953891;28;20039;-73
2021/09/17 05:31:42;;;;;;;9.25;6.72;;;13.30;99.90;;;;;;4954037;28;20047;-73
2021/09/17 05:34:08;;;;;;;11.02;6.55;;;13.40;99.90;;;;;;4953473;28;20410;-72
2021/09/17 05:36:34;;;;;;;11.52;7.05;;;13.50;99.90;;;;;;4966366;28;20042;-73
2021/09/17 05:39:01;;;;;;;8.85;6.68;;;13.60;99.90;;;;;;4954692;28;20027;-74
2021/09/17 05:41:27;;;;;;;9.70;6.78;;;13.60;99.90;;;;;;4954714;28;20031;-76
2021/09/17 05:43:53;;;;;;;8.48;5.80;;;13.60;99.90;;;;;;4954303;28;20465;-74
2021/09/17 05:46:20;;;;;;;8.52;6.00;;;13.90;99.90;;;;;;4954746;28;20031;-75
2021/09/17 05:48:46;;;;;;;8.55;5.30;;;14.70;99.90;;;;;;4954561;28;20039;-74
2021/09/17 05:51:12;;;;;;;8.20;5.65;;;15.20;99.90;;;;;;4956415;28;20063;-74
2021/09/17 05:53:38;;;;;;;6.50;4.57;;;15.90;99.90;;;;;;4953138;28;20044;-74
2021/09/17 05:56:05;;;;;;;8.35;4.45;;;16.90;99.90;;;;;;4953951;28;20041;-75
2021/09/17 05:58:32;;;;;;;6.45;4.70;;;18.10;99.90;;;;;;4954280;28;20389;-75
2021/09/17 06:00:58;;;;;;;5.25;4.30;;;19.00;94.40;;;;;;4960778;28;20468;-74
2021/09/17 06:03:25;;;;;;;5.30;3.72;;;19.00;92.00;;;;;;4966026;28;20038;-74
2021/09/17 06:05:51;;;;;;;4.70;3.17;;;18.50;92.30;;;;;;4954820;28;20031;-74
2021/09/17 06:08:17;;;;;;;4.93;3.53;;;18.10;93.20;;;;;;4957759;28;20039;-73
2021/09/17 06:10:43;;;;;;;5.65;4.03;;;18.10;93.20;;;;;;4957287;28;20054;-74
2021/09/17 06:13:10;;;;;;;5.28;3.78;;;17.80;93.50;;;;;;4957194;28;20469;-74
2021/09/17 06:15:36;;;;;;;7.68;4.10;;;17.60;94.40;;;;;;4957138;28;20059;-75
2021/09/17 06:18:03;;;;;;;7.28;4.22;;;18.20;93.90;;;;;;4957067;28;20042;-75
2021/09/17 06:20:29;;;;;;;4.93;3.70;;;18.90;91.60;;;;;;4957208;28;20023;-73
2021/09/17 06:22:55;;;;;;;6.28;4.22;;;19.50;90.20;;;;;;4957310;28;20039;-72
2021/09/17 06:25:23;;;;;;;6.22;4.30;;;19.50;89.70;;;;;;4956961;28;20027;-73
2021/09/17 06:27:50;;;;;;;7.38;4.43;;;19.00;89.40;;;;;;4955492;28;20043;-73
2021/09/17 06:30:18;;;;;;;7.43;5.13;;;18.80;90.50;;;;;;4956448;28;20038;-74
2021/09/17 06:32:46;;;;;;;5.47;3.85;;;19.00;90.20;;;;;;4955979;28;20058;-74
2021/09/17 06:35:13;;;;;;;8.07;4.60;;;19.70;88.80;;;;;;4957227;28;20043;-74
2021/09/17 06:37:47;;;;;;;6.75;4.43;;;20.40;85.10;;;;;;4957097;28;20035;-74
2021/09/17 06:40:15;;;;;;;5.68;3.85;;;20.20;83.50;;;;;;4962420;28;20042;-75
2021/09/17 06:42:41;;;;;;;5.22;4.70;;;20.60;82.30;;;;;;4966510;28;20038;-76
2021/09/17 06:45:08;;;;;;;6.32;5.43;;;20.70;81.60;;;;;;4956341;28;20032;-75
2021/09/17 06:47:50;;;;;;;7.15;4.63;;;20.90;80.30;;;;;;4956984;28;20027;-75
2021/09/17 06:50:18;;;;;;;6.40;5.00;;;21.30;79.30;;;;;;4967852;28;20058;-77
2021/09/17 06:52:48;;;;;;;5.60;4.35;;;21.80;76.40;;;;;;4967526;28;20354;-75
2021/09/17 06:55:16;;;;;;;5.43;4.57;;;21.70;76.50;;;;;;4978740;28;20111;-76
2021/09/17 06:57:47;;;;;;;4.55;3.95;;;21.80;76.30;;;;;;4962784;28;20042;-77
2021/09/17 07:00:16;;;;;;;10.27;6.22;;;21.80;76.10;;;;;;4956593;28;20445;-77
2021/09/17 07:02:43;;;;;;;6.65;4.80;;;22.40;74.70;;;;;;4956966;28;20036;-77
2021/09/17 07:05:10;;;;;;;6.15;4.70;;;22.60;73.90;;;;;;4944265;29;20048;-77
2021/09/17 07:07:36;;;;;;;5.93;4.38;;;22.10;73.50;;;;;;4957239;28;20051;-77
2021/09/17 07:10:05;;;;;;;6.90;5.35;;;21.50;75.50;;;;;;4959772;28;20039;-76
2021/09/17 07:12:31;;;;;;;7.60;5.75;;;20.60;77.00;;;;;;4963211;28;20362;-77
2021/09/17 07:14:57;;;;;;;7.32;5.40;;;20.30;79.20;;;;;;4974251;28;20039;-77
2021/09/17 07:17:24;;;;;;;7.97;5.63;;;19.90;80.40;;;;;;4944047;29;20058;-77
2021/09/17 07:19:50;;;;;;;6.82;5.55;;;19.20;82.70;;;;;;4958388;28;20027;-79
2021/09/17 07:22:16;;;;;;;7.63;5.45;;;19.30;84.10;;;;;;4964378;28;20058;-77
2021/09/17 07:24:43;;;;;;;7.57;5.30;;;19.70;81.50;;;;;;4966265;28;20031;-77
2021/09/17 07:27:09;;;;;;;6.30;5.03;;;19.40;82.20;;;;;;4955909;28;20043;-76
2021/09/17 07:29:35;;;;;;;6.32;4.55;;;19.40;82.60;;;;;;4956577;28;20065;-75
2021/09/17 07:32:02;;;;;;;6.15;5.10;;;19.90;84.30;;;;;;4955641;28;20040;-75
2021/09/17 07:34:28;;;;;;;6.72;4.55;;;20.20;80.20;;;;;;4956208;28;20067;-75
2021/09/17 07:36:55;;;;;;;6.07;4.75;;;20.00;79.40;;;;;;4955570;28;20034;-75
2021/09/17 07:39:21;;;;;;;6.18;4.60;;;19.70;80.50;;;;;;4955449;28;20027;-75
2021/09/17 07:41:48;;;;;;;5.30;4.25;;;19.90;81.00;;;;;;4955884;28;20038;-76
2021/09/17 07:44:14;;;;;;;5.35;3.90;;;19.90;80.30;;;;;;4955518;28;20039;-75
2021/09/17 07:46:40;;;;;;;4.82;4.20;;;20.80;78.20;;;;;;4956650;28;20031;-75
2021/09/17 07:49:07;;;;;;;6.28;4.50;;;20.90;75.60;;;;;;4956069;28;20050;-75
2021/09/17 07:51:33;;;;;;;5.95;4.10;;;20.40;76.80;;;;;;4966254;28;20469;-75
2021/09/17 07:53:59;;;;;;;4.50;3.53;;;20.30;77.40;;;;;;4955279;28;20503;-76
2021/09/17 07:56:25;;;;;;;8.65;4.07;;;19.90;76.60;;;;;;4956393;28;20031;-74
2021/09/17 07:58:52;;;;;;;5.15;4.07;;;19.20;78.60;;;;;;4957304;28;20035;-73
2021/09/17 08:01:18;;;;;;;5.95;4.68;;;19.60;78.70;;;;;;4956817;28;20035;-74
2021/09/17 08:03:44;;;;;;;5.53;4.10;;;20.30;76.20;;;;;;4967185;28;20034;-74
2021/09/17 08:06:12;;;;;;;4.43;3.97;;;20.40;76.50;;;;;;4960928;28;20043;-73
2021/09/17 08:08:39;;;;;;;6.43;4.25;;;19.80;78.80;;;;;;4959057;28;20034;-73
2021/09/17 08:11:05;;;;;;;6.10;3.78;;;19.90;77.00;;;;;;4971828;28;20027;-74
2021/09/17 08:13:31;;;;;;;5.25;4.50;;;20.50;75.90;;;;;;4971828;28;20046;-74
2021/09/17 08:15:58;;;;;;;4.65;3.95;;;20.80;77.20;;;;;;4964320;28;20066;-73
2021/09/17 08:18:25;;;;;;;4.82;3.75;;;21.50;74.60;;;;;;4960866;28;20035;-74
2021/09/17 08:20:57;;;;;;;5.13;4.03;;;22.30;73.30;;;;;;4959733;28;20038;-74
2021/09/17 08:23:25;;;;;;;5.45;3.72;;;22.30;70.00;;;;;;4956770;28;20030;-73
2021/09/17 08:25:54;;;;;;;4.55;3.65;;;22.10;70.40;;;;;;4963704;28;20043;-75
2021/09/17 08:28:25;;;;;;;5.85;3.60;;;22.00;71.50;;;;;;4954564;28;20038;-74
2021/09/17 08:30:51;;;;;;;4.78;3.58;;;22.00;71.50;;;;;;4955426;28;20031;-73
2021/09/17 08:33:20;;;;;;;6.47;4.07;;;21.90;70.20;;;;;;4953703;28;20051;-73
2021/09/17 08:35:47;;;;;;;4.75;3.63;;;21.40;70.90;;;;;;4954519;29;20055;-76
2021/09/17 08:38:13;;;;;;;5.55;4.22;;;21.50;71.50;;;;;;4954101;28;20374;-72
2021/09/17 08:40:42;;;;;;;5.60;4.32;;;21.20;71.50;;;;;;4954612;28;20465;-75
2021/09/17 08:43:09;;;;;;;5.30;3.65;;;21.30;72.60;;;;;;4971303;28;20460;-74
2021/09/17 08:45:36;;;;;;;10.05;5.32;;;22.00;71.70;;;;;;4967720;28;20412;-75
2021/09/17 08:48:05;;;;;;;6.82;5.55;;;21.70;70.70;;;;;;4954500;28;20370;-74
2021/09/17 08:50:33;;;;;;;8.00;5.38;;;21.20;72.40;;;;;;4953394;28;20035;-73
2021/09/17 08:52:59;;;;;;;8.63;4.47;;;21.80;71.30;;;;;;4969317;28;20487;-73
2021/09/17 08:55:27;;;;;;;6.80;4.78;;;22.30;71.30;;;;;;4973290;28;20401;-74
2021/09/17 08:57:53;;;;;;;5.72;5.15;;;23.50;67.60;;;;;;4953743;28;20047;-75
2021/09/17 09:00:25;;;;;;;8.18;5.30;;;23.70;67.00;;;;;;4952526;28;20485;-73
2021/09/17 09:02:56;;;;;;;6.43;5.65;;;24.00;64.40;;;;;;4954941;28;20031;-73
2021/09/17 09:05:48;;;;;;;6.53;5.55;;;24.10;64.90;;;;;;4954006;28;20035;-74
2021/09/17 09:08:23;;;;;;;8.82;5.50;;;23.00;63.90;;;;;;4957081;28;20054;-77
2021/09/17 09:10:50;;;;;;;8.20;5.68;;;22.90;65.70;;;;;;4972056;28;20031;-82
2021/09/17 09:13:16;;;;;;;8.15;5.03;;;23.30;66.50;;;;;;4965813;28;20039;-77
2021/09/17 09:15:42;;;;;;;7.20;4.63;;;23.80;64.30;;;;;;4971474;28;20054;-77
2021/09/17 09:18:14;;;;;;;6.25;5.07;;;24.80;61.50;;;;;;4971382;28;20045;-78
2021/09/17 09:20:48;;;;;;;7.28;4.63;;;24.60;61.30;;;;;;4970662;28;20035;-76
2021/09/17 09:23:20;;;;;;;6.50;4.25;;;23.60;61.50;;;;;;4973869;28;20042;-78
2021/09/17 09:25:55;;;;;;;5.22;4.28;;;23.00;63.20;;;;;;4978358;28;20034;-77
2021/09/17 09:28:24;;;;;;;7.40;5.18;;;23.10;62.60;;;;;;4970149;28;20385;-77
2021/09/17 09:30:53;;;;;;;6.30;3.85;;;23.70;62.40;;;;;;4972794;28;20050;-78
2021/09/17 09:33:21;;;;;;;10.68;4.20;;;24.80;61.20;;;;;;4970458;28;20027;-78
2021/09/17 09:36:03;;;;;;;5.25;4.22;;;25.80;58.10;;;;;;4985045;28;20038;-78
2021/09/17 09:38:40;;;;;;;6.97;4.82;;;24.60;57.80;;;;;;4985586;28;20030;-76
2021/09/17 09:41:10;;;;;;;5.18;4.07;;;24.60;58.40;;;;;;4973830;28;20020;-77
2021/09/17 09:43:56;;;;;;;7.20;4.60;;;23.50;60.20;;;;;;4976034;28;20031;-76
2021/09/17 09:46:27;;;;;;;5.72;4.05;;;23.00;62.70;;;;;;4968241;28;20384;-77
2021/09/17 09:49:27;;;;;;;5.82;3.65;;;23.00;63.50;;;;;;4971639;28;20502;-77
2021/09/17 09:52:02;;;;;;;5.68;3.70;;;23.20;60.60;;;;;;4976904;28;20404;-75
2021/09/17 09:54:30;;;;;;;5.57;3.95;;;22.40;62.10;;;;;;4976870;28;20054;-73
2021/09/17 09:56:59;;;;;;;7.35;4.30;;;21.80;62.20;;;;;;4958592;28;20039;-73
2021/09/17 09:59:30;;;;;;;5.25;4.38;;;21.50;65.10;;;;;;4957263;28;20027;-73
2021/09/17 10:02:00;;;;;;;6.00;3.85;;;21.90;63.50;;;;;;4968641;28;20042;-73
2021/09/17 10:04:28;;;;;;;4.78;3.38;;;22.00;63.70;;;;;;4957899;28;20056;-74
2021/09/17 10:07:09;;;;;;;4.32;3.63;;;22.50;62.90;;;;;;4957845;28;20040;-74
2021/09/17 10:09:40;;;;;;;7.32;3.45;;;22.70;63.30;;;;;;4957260;28;20035;-73
2021/09/17 10:12:08;;;;;;;4.63;2.97;;;22.50;61.70;;;;;;4957189;28;20040;-73
2021/09/17 10:14:36;;;;;;;6.75;3.42;;;22.60;64.80;;;;;;4956927;28;20067;-74
2021/09/17 10:17:08;;;;;;;5.93;3.40;;;22.30;64.00;;;;;;4965792;28;20057;-75
2021/09/17 10:19:36;;;;;;;5.57;3.50;;;22.00;64.70;;;;;;4956552;28;20393;-74
2021/09/17 10:22:04;;;;;;;5.75;3.63;;;21.40;65.30;;;;;;4940307;28;20038;-74
2021/09/17 10:24:33;;;;;;;8.57;4.95;;;21.30;65.50;;;;;;4972007;28;20034;-74
2021/09/17 10:27:05;;;;;;;11.77;9.15;;;20.80;68.90;;;;;;4973482;28;20039;-73
2021/09/17 10:29:38;;;;;;;11.02;8.10;;;20.30;69.70;;;;;;4965982;28;20058;-74
2021/09/17 10:32:26;;;;;;;9.95;7.80;;;20.00;72.90;;;;;;4967780;28;20104;-76
2021/09/17 10:35:11;;;;;;;10.32;7.65;;;19.90;70.60;;;;;;4960497;28;20491;-76
2021/09/17 10:38:15;;;;;;;9.75;7.20;;;19.60;72.30;;;;;;4971667;28;20049;-76
2021/09/17 10:40:54;;;;;;;10.90;8.02;;;19.40;73.00;;;;;;4958598;28;20046;-76
2021/09/17 10:43:28;;;;;;;14.40;9.10;;;19.40;73.60;;;;;;4964244;28;20045;-75
2021/09/17 10:45:57;;;;;;;10.18;8.02;;;19.50;74.80;;;;;;4970107;28;20039;-76
2021/09/17 10:48:26;;;;;;;10.93;8.48;;;19.60;73.80;;;;;;4958741;28;20042;-76
2021/09/17 10:51:04;;;;;;;13.35;7.97;;;19.70;74.20;;;;;;4941797;28;20409;-75
2021/09/17 10:53:39;;;;;;;8.15;6.40;;;19.50;74.40;;;;;;4972106;28;20023;-75
2021/09/17 10:56:13;;;;;;;7.53;5.68;;;19.40;73.90;;;;;;4933666;29;20042;-74
2021/09/17 10:58:44;;;;;;;8.48;5.55;;;19.60;74.40;;;;;;4936139;29;20036;-75
2021/09/17 11:01:16;;;;;;;6.70;5.43;;;19.80;73.80;;;;;;4934914;29;20040;-73
2021/09/17 11:03:45;;;;;;;7.80;4.65;;;20.00;73.10;;;;;;4934565;29;20054;-74
2021/09/17 11:06:30;;;;;;;6.82;5.30;;;20.10;73.30;;;;;;4934630;28;20047;-74
2021/09/17 11:09:04;;;;;;;6.18;4.35;;;20.40;71.70;;;;;;4936365;29;20031;-76
2021/09/17 11:11:38;;;;;;;6.30;5.05;;;20.30;71.80;;;;;;4936312;29;20043;-76
2021/09/17 11:14:08;;;;;;;6.32;4.22;;;20.30;70.90;;;;;;4921707;29;20055;-75
2021/09/17 11:16:35;;;;;;;9.17;4.83;;;20.20;71.10;;;;;;4917736;29;20466;-76
2021/09/17 11:19:06;;;;;;;7.70;4.95;;;20.30;71.50;;;;;;4918508;29;20383;-75
2021/09/17 11:21:39;;;;;;;6.18;4.20;;;20.40;70.70;;;;;;4918739;29;20028;-76
2021/09/17 11:24:14;;;;;;;8.38;5.05;;;20.50;70.60;;;;;;4918570;29;20347;-76
2021/09/17 11:26:43;;;;;;;9.13;4.68;;;20.90;70.50;;;;;;4918945;29;20036;-75
2021/09/17 11:29:15;;;;;;;4.43;3.73;;;21.30;68.70;;;;;;4922834;29;20032;-76
2021/09/17 11:31:46;;;;;;;4.68;3.13;;;21.00;67.70;;;;;;4935064;29;20414;-75
2021/09/17 11:34:14;;;;;;;4.55;3.80;;;20.70;68.70;;;;;;4933443;29;20063;-75
2021/09/17 11:36:47;;;;;;;4.05;3.20;;;21.20;67.00;;;;;;4932942;29;20484;-76
2021/09/17 11:39:22;;;;;;;5.35;4.20;;;21.90;67.00;;;;;;4920783;29;20475;-76
2021/09/17 11:41:51;;;;;;;10.00;4.38;;;21.50;65.70;;;;;;4917607;29;20043;-75
2021/09/17 11:44:50;;;;;;;6.32;3.40;;;21.10;66.50;;;;;;4917435;29;20048;-74
2021/09/17 11:47:29;;;;;;;4.88;3.90;;;21.60;65.20;;;;;;4917537;29;20036;-74
2021/09/17 11:49:57;;;;;;;6.85;3.58;;;21.80;64.80;;;;;;4917567;29;20051;-73
2021/09/17 11:52:23;;;;;;;5.80;4.10;;;21.50;66.10;;;;;;4916854;29;20036;-73
2021/09/17 11:55:02;;;;;;;4.88;3.35;;;21.00;66.90;;;;;;4936936;28;20047;-72
2021/09/17 11:57:33;;;;;;;4.28;2.72;;;21.00;67.00;;;;;;4955336;28;20035;-73
2021/09/17 12:00:15;;;;;;;4.68;3.15;;;21.20;66.90;;;;;;4956055;28;20031;-73
2021/09/17 12:02:44;;;;;;;5.50;3.75;;;21.60;64.30;;;;;;4961320;28;20035;-74
2021/09/17 12:05:24;;;;;;;4.63;3.50;;;21.60;65.60;;;;;;4963096;28;20039;-73
2021/09/17 12:07:52;;;;;;;7.32;3.53;;;21.80;65.10;;;;;;4954567;28;20039;-74
2021/09/17 12:10:20;;;;;;;5.47;3.60;;;21.90;65.60;;;;;;4954818;28;20038;-74
2021/09/17 12:12:47;;;;;;;5.63;3.28;;;21.80;63.50;;;;;;4955807;28;20035;-74
2021/09/17 12:15:27;;;;;;;6.45;4.32;;;21.80;65.80;;;;;;4964521;28;20043;-73
2021/09/17 12:18:05;;;;;;;4.93;3.25;;;21.80;64.50;;;;;;4955090;28;20524;-73
2021/09/17 12:20:44;;;;;;;5.07;3.40;;;21.30;64.50;;;;;;4954353;28;20042;-73
2021/09/17 12:23:32;;;;;;;6.90;3.93;;;21.30;66.30;;;;;;4954358;28;20043;-73
2021/09/17 12:26:16;;;;;;;4.90;3.25;;;21.40;65.70;;;;;;4955080;28;20036;-72
2021/09/17 12:28:54;;;;;;;6.13;3.38;;;21.00;65.70;;;;;;4955139;28;20031;-73
2021/09/17 12:31:36;;;;;;;4.22;3.40;;;20.70;66.80;;;;;;4955615;28;20381;-74
2021/09/17 12:34:14;;;;;;;5.03;3.72;;;20.80;67.30;;;;;;4970813;28;20034;-73
2021/09/17 12:36:41;;;;;;;6.97;4.07;;;20.40;67.70;;;;;;4977950;28;20046;-72
2021/09/17 12:39:09;;;;;;;4.57;3.40;;;20.50;68.20;;;;;;4968219;28;20584;-73
2021/09/17 12:41:36;;;;;;;5.32;2.78;;;20.50;68.00;;;;;;4972887;28;20045;-73
2021/09/17 12:44:11;;;;;;;5.53;3.00;;;20.30;69.50;;;;;;4969761;28;20047;-73
2021/09/17 12:46:42;;;;;;;5.50;3.10;;;20.30;70.20;;;;;;4970802;28;20377;-73
2021/09/17 12:49:10;;;;;;;4.53;3.42;;;20.20;70.20;;;;;;4958000;28;20480;-73
2021/09/17 12:51:37;;;;;;;7.78;3.88;;;20.30;69.30;;;;;;4954170;28;20047;-74
2021/09/17 12:54:12;;;;;;;4.38;3.22;;;20.20;68.60;;;;;;4952580;28;20516;-73